createdAt,value
2023-01-30T00:01:35.497Z,44.17
2023-01-30T00:06:44.626Z,45.25
2023-01-30T00:11:50.227Z,48.05
2023-01-30T00:16:54.797Z,43.20
2023-01-30T00:22:00.720Z,51.13
2023-01-30T00:27:05.275Z,39.03
2023-01-30T00:32:10.460Z,42.38
2023-01-30T00:37:19.079Z,40.40
2023-01-30T00:42:40.885Z,42.53
2023-01-30T00:47:45.685Z,40.58
2023-01-30T00:52:51.498Z,35.38
2023-01-30T00:57:55.901Z,47.00
2023-01-30T01:03:00.247Z,37.28
2023-01-30T01:08:07.026Z,52.90
2023-01-30T01:13:14.291Z,32.33
2023-01-30T01:18:18.812Z,30.58
2023-01-30T01:23:25.986Z,35.53
2023-01-30T01:28:30.478Z,26.85
2023-01-30T01:33:34.894Z,27.42
2023-01-30T01:38:43.091Z,21.45
2023-01-30T01:44:06.541Z,21.02
2023-01-30T01:49:17.598Z,21.30
2023-01-30T01:54:31.241Z,28.20
2023-01-30T01:59:40.237Z,14.30
2023-01-30T02:05:06.618Z,26.15
2023-01-30T02:10:19.913Z,19.33
2023-01-30T02:15:24.958Z,22.90
2023-01-30T02:20:41.742Z,17.02
2023-01-30T02:26:22.511Z,17.75
2023-01-30T02:31:37.211Z,16.05
2023-01-30T02:36:53.715Z,16.33
2023-01-30T02:42:04.830Z,19.48
2023-01-30T02:47:16.399Z,19.52
2023-01-30T02:52:21.967Z,20.50
2023-01-30T02:57:27.912Z,18.00
2023-01-30T03:03:11.128Z,17.88
2023-01-30T03:08:26.477Z,22.17
2023-01-30T03:13:46.410Z,20.52
2023-01-30T03:18:53.364Z,16.85
2023-01-30T03:23:57.926Z,19.08
2023-01-30T03:29:03.404Z,18.42
2023-01-30T03:34:09.433Z,14.27
2023-01-30T03:39:14.237Z,26.58
2023-01-30T03:44:19.277Z,34.80
2023-01-30T03:49:25.594Z,21.85
2023-01-30T03:54:30.206Z,15.70
2023-01-30T03:59:34.939Z,22.83
2023-01-30T04:04:45.887Z,18.42
2023-01-30T04:09:51.232Z,23.77
2023-01-30T04:14:57.500Z,24.00
2023-01-30T04:20:23.673Z,28.67
2023-01-30T04:25:31.174Z,19.30
2023-01-30T04:30:36.053Z,21.77
2023-01-30T04:36:03.616Z,22.70
2023-01-30T04:41:08.856Z,33.88
2023-01-30T04:46:17.533Z,19.55
2023-01-30T04:51:23.646Z,28.98
2023-01-30T04:56:28.624Z,25.10
2023-01-30T05:01:34.666Z,26.23
2023-01-30T05:06:40.605Z,29.08
2023-01-30T05:11:45.406Z,28.70
2023-01-30T05:16:50.485Z,62.80
2023-01-30T05:21:56.422Z,37.28
2023-01-30T05:27:00.768Z,26.23
2023-01-30T05:32:05.968Z,24.10
2023-01-30T05:37:12.737Z,28.08
2023-01-30T05:42:17.253Z,24.42
2023-01-30T05:47:22.115Z,26.33
2023-01-30T05:52:28.151Z,26.90
2023-01-30T05:57:32.593Z,26.67
2023-01-30T06:02:37.104Z,26.45
2023-01-30T06:07:43.252Z,24.90
2023-01-30T06:12:47.817Z,25.27
2023-01-30T06:17:52.640Z,28.83
2023-01-30T06:22:58.681Z,41.92
2023-01-30T06:28:03.240Z,31.00
2023-01-30T06:33:07.734Z,30.48
2023-01-30T06:38:14.342Z,24.98
2023-01-30T06:43:19.619Z,28.38
2023-01-30T06:48:25.255Z,27.63
2023-01-30T06:53:31.484Z,30.48
2023-01-30T06:58:36.030Z,29.05
2023-01-30T07:03:40.487Z,28.05
2023-01-30T07:08:46.539Z,35.03
2023-01-30T07:13:51.186Z,32.00
2023-01-30T07:18:57.454Z,38.50
2023-01-30T07:24:03.369Z,28.55
2023-01-30T07:29:07.893Z,33.92
2023-01-30T07:34:12.399Z,28.15
2023-01-30T07:39:19.900Z,27.30
2023-01-30T07:44:25.827Z,31.35
2023-01-30T07:49:30.817Z,29.35
2023-01-30T07:54:36.674Z,29.67
2023-01-30T07:59:41.358Z,24.92
2023-01-30T08:04:45.878Z,33.83
2023-01-30T08:09:51.901Z,36.70
2023-01-30T08:14:56.492Z,30.13
2023-01-30T08:20:01.073Z,23.40
2023-01-30T08:25:08.711Z,27.07
2023-01-30T08:30:14.567Z,29.33
2023-01-30T08:40:25.074Z,25.90
2023-01-30T08:45:30.224Z,29.85
2023-01-30T08:50:35.723Z,25.65
2023-01-30T08:55:41.800Z,26.75
2023-01-30T09:00:47.871Z,28.95
2023-01-30T09:05:56.892Z,29.77
2023-01-30T09:11:04.801Z,26.60
2023-01-30T09:16:09.459Z,22.17
2023-01-30T09:21:15.026Z,26.67
2023-01-30T09:31:25.567Z,26.07
2023-01-30T09:36:30.181Z,24.98
2023-01-30T09:42:06.791Z,24.15
2023-01-30T09:47:13.356Z,27.38
2023-01-30T09:52:26.412Z,28.25
2023-01-30T09:57:33.417Z,23.73
2023-01-30T10:02:45.972Z,22.40
2023-01-30T10:08:09.723Z,32.00
2023-01-30T10:13:30.559Z,28.58
2023-01-30T10:19:10.742Z,24.55
2023-01-30T10:24:39.329Z,23.23
2023-01-30T10:29:49.257Z,26.52
2023-01-30T10:34:57.432Z,31.42
2023-01-30T10:40:14.092Z,21.55
2023-01-30T10:45:24.576Z,23.50
2023-01-30T10:50:38.502Z,24.98
2023-01-30T10:55:49.337Z,26.88
2023-01-30T11:01:01.585Z,26.92
2023-01-30T11:06:12.691Z,29.13
2023-01-30T11:11:29.322Z,33.75
2023-01-30T11:16:49.814Z,31.40
2023-01-30T11:21:56.362Z,28.52
2023-01-30T11:27:12.143Z,19.95
2023-01-30T11:32:29.113Z,24.75
2023-01-30T11:37:35.443Z,32.20
2023-01-30T11:42:46.016Z,33.85
2023-01-30T11:48:04.745Z,31.13
2023-01-30T11:53:22.126Z,36.22
2023-01-30T12:03:45.888Z,32.50
2023-01-30T12:08:54.220Z,35.72
2023-01-30T12:14:10.524Z,34.35
2023-01-30T12:19:30.894Z,39.15
2023-01-30T12:24:42.427Z,38.80
2023-01-30T12:30:00.017Z,31.20
2023-01-30T12:35:16.988Z,30.33
2023-01-30T12:40:51.789Z,25.60
2023-01-30T12:46:04.789Z,30.35
2023-01-30T12:51:22.423Z,44.13
2023-01-30T12:56:52.237Z,29.30
2023-01-30T13:02:24.362Z,31.15
2023-01-30T13:07:41.386Z,26.98
2023-01-30T13:12:52.294Z,27.55
2023-01-30T13:18:07.676Z,31.50
2023-01-30T13:23:19.632Z,35.30
2023-01-30T13:28:27.415Z,33.67
2023-01-30T13:33:35.090Z,29.20
2023-01-30T13:38:51.173Z,36.03
2023-01-30T13:43:56.212Z,39.33
2023-01-30T13:49:11.472Z,36.10
2023-01-30T13:54:38.348Z,41.10
2023-01-30T14:00:09.583Z,33.38
2023-01-30T14:05:56.913Z,33.78
2023-01-30T14:11:03.468Z,25.35
2023-01-30T14:16:08.378Z,33.78
2023-01-30T14:21:18.197Z,35.80
2023-01-30T14:32:29.009Z,30.02
2023-01-30T14:38:18.524Z,31.90
2023-01-30T14:43:53.043Z,38.67
2023-01-30T14:49:05.792Z,37.08
2023-01-30T14:54:27.658Z,34.40
2023-01-30T14:59:41.428Z,38.35
2023-01-30T15:04:50.554Z,32.72
2023-01-30T15:09:59.286Z,28.65
2023-01-30T15:15:15.430Z,29.90
2023-01-30T15:20:37.245Z,27.33
2023-01-30T15:25:55.745Z,33.60
2023-01-30T15:31:10.221Z,37.50
2023-01-30T15:36:38.894Z,37.17
2023-01-30T15:41:43.659Z,39.60
2023-01-30T15:46:57.039Z,46.20
2023-01-30T15:52:04.789Z,48.10
2023-01-30T15:57:19.304Z,47.88
2023-01-30T16:02:30.366Z,40.28
2023-01-30T16:07:36.319Z,39.40
2023-01-30T16:12:41.184Z,43.35
2023-01-30T16:17:59.590Z,42.08
2023-01-30T16:23:05.661Z,40.28
2023-01-30T16:28:10.532Z,45.08
2023-01-30T16:33:18.075Z,41.40
2023-01-30T16:38:36.816Z,49.35
2023-01-30T16:43:44.716Z,35.70
2023-01-30T16:48:49.267Z,36.20
2023-01-30T16:54:03.906Z,33.13
2023-01-30T16:59:20.170Z,44.95
2023-01-30T17:04:29.068Z,42.88
2023-01-30T17:09:39.672Z,37.13
2023-01-30T17:14:44.334Z,41.70
2023-01-30T17:19:49.295Z,35.67
2023-01-30T17:24:59.861Z,35.10
2023-01-30T17:30:04.612Z,40.17
2023-01-30T17:35:09.772Z,37.70
2023-01-30T17:40:19.738Z,38.00
2023-01-30T17:45:24.480Z,46.67
2023-01-30T17:50:29.737Z,40.15
2023-01-30T17:55:36.667Z,43.25
2023-01-30T18:00:41.164Z,39.60
2023-01-30T18:05:45.767Z,39.60
2023-01-30T18:10:51.841Z,35.70
2023-01-30T18:16:03.448Z,31.85
2023-01-30T18:21:08.232Z,30.38
2023-01-30T18:26:14.350Z,36.00
2023-01-30T18:31:20.308Z,34.42
2023-01-30T18:36:25.283Z,37.72
2023-01-30T18:41:32.275Z,29.30
2023-01-30T18:46:36.969Z,32.10
2023-01-30T18:51:41.543Z,29.35
2023-01-30T18:56:47.611Z,27.75
2023-01-30T19:01:52.334Z,27.52
2023-01-30T19:06:57.093Z,25.27
2023-01-30T19:12:20.367Z,29.63
2023-01-30T19:17:24.914Z,29.67
2023-01-30T19:22:29.551Z,25.83
2023-01-30T19:27:37.906Z,23.80
2023-01-30T19:32:42.408Z,24.85
2023-01-30T19:37:48.064Z,29.48
2023-01-30T19:48:04.278Z,34.35
2023-01-30T19:53:10.501Z,34.13
2023-01-30T19:58:16.643Z,34.80
2023-01-30T20:03:21.280Z,31.38
2023-01-30T20:08:32.521Z,40.10
2023-01-30T20:13:40.115Z,45.58
2023-01-30T20:18:46.282Z,32.05
2023-01-30T20:23:51.556Z,33.88
2023-01-30T20:28:58.741Z,37.20
2023-01-30T20:34:04.978Z,35.50
2023-01-30T20:39:09.705Z,55.78
2023-01-30T20:44:16.635Z,43.13
2023-01-30T20:49:23.736Z,40.22
2023-01-30T20:54:28.602Z,47.33
2023-01-30T20:59:34.974Z,45.33
2023-01-30T21:04:39.757Z,43.13
2023-01-30T21:09:44.282Z,49.70
2023-01-30T21:14:50.380Z,47.70
2023-01-30T21:19:54.965Z,39.78
2023-01-30T21:24:59.927Z,34.45
2023-01-30T21:30:07.003Z,29.33
2023-01-30T21:35:14.855Z,34.80
2023-01-30T21:40:36.774Z,31.80
2023-01-30T21:45:43.642Z,56.60
2023-01-30T21:50:49.179Z,59.65
2023-01-30T21:55:55.053Z,42.45
2023-01-30T22:01:07.472Z,47.50
2023-01-30T22:06:13.008Z,38.78
2023-01-30T22:11:19.703Z,40.17
2023-01-30T22:16:27.457Z,42.45
2023-01-30T22:21:34.469Z,68.88
2023-01-30T22:26:42.107Z,39.30
2023-01-30T22:31:48.355Z,74.03
2023-01-30T22:36:53.322Z,75.95
2023-01-30T22:41:58.075Z,68.13
2023-01-30T22:47:04.133Z,57.75
2023-01-30T22:52:08.966Z,95.25
2023-01-30T22:57:13.621Z,95.87
2023-01-30T23:02:19.851Z,36.47
2023-01-30T23:07:24.446Z,51.67
2023-01-30T23:12:42.693Z,28.05
2023-01-30T23:18:15.107Z,25.75
2023-01-30T23:23:19.717Z,26.83
2023-01-30T23:28:24.446Z,22.85
2023-01-30T23:33:30.601Z,31.93
2023-01-30T23:38:35.705Z,22.48
2023-01-30T23:43:41.091Z,17.60
2023-01-30T23:48:49.873Z,18.73
2023-01-30T23:53:55.575Z,20.60
2023-01-30T23:59:00.117Z,35.33
